| time (UTC) | temp F | wind direction | speed MPH | gust MPH | rain 1hr in | rain 24hr in | rain mn in | humidity % | barometer mb |
| 20260508065248 | 74 | 346 | 0.0 | 3.0 | 0.00 | 0.00 | 0.00 | 86 | 1013.4 |
| 20260508064746 | 74 | 339 | 0.0 | 2.0 | 0.00 | 0.00 | 0.00 | 86 | 1013.5 |
| 20260508064244 | 74 | 331 | 1.0 | 3.0 | 0.00 | 0.00 | 0.00 | 86 | 1013.4 |
| 20260508063740 | 75 | 327 | 2.0 | 3.0 | 0.00 | 0.00 | 0.00 | 86 | 1013.5 |
| 20260508063239 | 75 | 348 | 0.0 | 1.0 | 0.00 | 0.00 | 0.00 | 85 | 1013.7 |
| 20260508062735 | 75 | 332 | 2.0 | 2.0 | 0.00 | 0.00 | 0.00 | 85 | 1013.6 |
| 20260508062233 | 75 | 281 | 1.0 | 6.0 | 0.00 | 0.00 | 0.00 | 84 | 1013.5 |
| 20260508061730 | 75 | 345 | 2.0 | 2.0 | 0.00 | 0.00 | 0.00 | 84 | 1013.6 |
| 20260508061227 | 75 | 334 | 0.0 | 2.0 | 0.00 | 0.00 | 0.00 | 84 | 1013.6 |
| 20260508060723 | 75 | 319 | 1.0 | 1.0 | 0.00 | 0.00 | 0.00 | 83 | 1013.3 |
| 20260508060221 | 75 | 335 | 1.0 | 2.0 | 0.00 | 0.00 | 0.00 | 83 | 1013.7 |
| 20260508055716 | 75 | 342 | 0.0 | 1.0 | 0.00 | 0.00 | 0.00 | 82 | 1013.6 |
| 20260508055213 | 75 | 332 | 1.0 | 3.0 | 0.00 | 0.00 | 0.00 | 82 | 1013.7 |
| 20260508054710 | 75 | 336 | 0.0 | 2.0 | 0.00 | 0.00 | 0.00 | 81 | 1013.5 |
| 20260508054208 | 75 | 350 | 0.0 | 3.0 | 0.00 | 0.00 | 0.00 | 81 | 1013.8 |
| 20260508053705 | 75 | 343 | 0.0 | 1.0 | 0.00 | 0.00 | 0.00 | 80 | 1013.6 |
| 20260508053202 | 75 | 343 | 0.0 | 0.0 | 0.00 | 0.00 | 0.00 | 80 | 1014.1 |
| 20260508052659 | 75 | 338 | 0.0 | 1.0 | 0.00 | 0.00 | 0.00 | 79 | 1013.8 |
| 20260508052156 | 75 | 341 | 0.0 | 2.0 | 0.00 | 0.00 | 0.00 | 79 | 1014.1 |
| 20260508051652 | 75 | 344 | 0.0 | 2.0 | 0.00 | 0.00 | 0.00 | 78 | 1013.9 |
| 20260508051148 | 76 | 342 | 0.0 | 2.0 | 0.00 | 0.00 | 0.00 | 78 | 1014.1 |
| 20260508050644 | 76 | 315 | 2.0 | 2.0 | 0.00 | 0.00 | 0.00 | 78 | 1014.2 |
| 20260508050142 | 76 | 338 | 1.0 | 2.0 | 0.00 | 0.00 | 0.00 | 77 | 1013.9 |
| 20260508045637 | 76 | 329 | 1.0 | 2.0 | 0.00 | 0.00 | 0.00 | 76 | 1014.2 |
| 20260508045136 | 76 | 333 | 1.0 | 2.0 | 0.00 | 0.00 | 0.00 | 76 | 1014.0 |
| 20260508044632 | 76 | 322 | 2.0 | 6.0 | 0.00 | 0.00 | 0.00 | 76 | 1014.0 |
| 20260508044129 | 76 | 339 | 1.0 | 2.0 | 0.00 | 0.00 | 0.00 | 75 | 1013.9 |
| 20260508043625 | 76 | 323 | 2.0 | 4.0 | 0.00 | 0.00 | 0.00 | 75 | 1014.3 |
| 20260508043123 | 77 | 340 | 1.0 | 2.0 | 0.00 | 0.00 | 0.00 | 75 | 1014.2 |
| 20260508042619 | 77 | 313 | 2.0 | 4.0 | 0.00 | 0.00 | 0.00 | 75 | 1014.1 |
| 20260508042117 | 77 | 326 | 2.0 | 2.0 | 0.00 | 0.00 | 0.00 | 74 | 1013.9 |
| 20260508041613 | 77 | 317 | 2.0 | 3.0 | 0.00 | 0.00 | 0.00 | 74 | 1014.2 |
| 20260508041110 | 77 | 345 | 0.0 | 1.0 | 0.00 | 0.00 | 0.00 | 74 | 1014.0 |
| 20260508040606 | 77 | 327 | 2.0 | 3.0 | 0.00 | 0.00 | 0.00 | 73 | 1014.1 |
| 20260508040104 | 77 | 296 | 4.0 | 4.0 | 0.00 | 0.00 | 0.00 | 73 | 1014.0 |
| 20260508035601 | 77 | 315 | 2.0 | 4.0 | 0.00 | 0.00 | 0.00 | 73 | 1014.2 |
| 20260508035058 | 77 | 307 | 1.0 | 2.0 | 0.00 | 0.00 | 0.00 | 73 | 1014.1 |
| 20260508034554 | 78 | 345 | 2.0 | 7.0 | 0.00 | 0.00 | 0.00 | 72 | 1013.9 |
| 20260508034052 | 78 | 306 | 2.0 | 4.0 | 0.00 | 0.00 | 0.00 | 72 | 1014.1 |
| 20260508033549 | 78 | 301 | 1.0 | 2.0 | 0.00 | 0.00 | 0.00 | 71 | 1014.1 |
| 20260508033048 | 78 | 309 | 3.0 | 7.0 | 0.00 | 0.00 | 0.00 | 71 | 1013.9 |
| 20260508032544 | 78 | 326 | 1.0 | 4.0 | 0.00 | 0.00 | 0.00 | 71 | 1013.8 |
| 20260508032042 | 78 | 343 | 2.0 | 4.0 | 0.00 | 0.00 | 0.00 | 70 | 1013.9 |
| 20260508031538 | 79 | 288 | 1.0 | 4.0 | 0.00 | 0.00 | 0.00 | 70 | 1013.6 |
| 20260508031034 | 79 | 304 | 3.0 | 4.0 | 0.00 | 0.00 | 0.00 | 69 | 1014.0 |
| 20260508030531 | 79 | 293 | 4.0 | 6.0 | 0.00 | 0.00 | 0.00 | 68 | 1013.9 |
| 20260508030029 | 79 | 313 | 2.0 | 6.0 | 0.00 | 0.00 | 0.00 | 67 | 1013.9 |
| 20260508025524 | 79 | 330 | 3.0 | 4.0 | 0.00 | 0.00 | 0.00 | 68 | 1013.7 |
| 20260508025022 | 79 | 286 | 2.0 | 4.0 | 0.00 | 0.00 | 0.00 | 67 | 1013.7 |
| 20260508024518 | 80 | 288 | 3.0 | 3.0 | 0.00 | 0.00 | 0.00 | 67 | 1013.9 |
| 20260508024015 | 80 | 296 | 1.0 | 3.0 | 0.00 | 0.00 | 0.00 | 66 | 1013.6 |
| 20260508023511 | 80 | 280 | 3.0 | 4.0 | 0.00 | 0.00 | 0.00 | 66 | 1013.6 |
| 20260508023009 | 80 | 293 | 1.0 | 2.0 | 0.00 | 0.00 | 0.00 | 65 | 1013.5 |
| 20260508022505 | 80 | 269 | 4.0 | 4.0 | 0.00 | 0.00 | 0.00 | 64 | 1013.6 |
| 20260508022001 | 81 | 279 | 5.0 | 8.0 | 0.00 | 0.00 | 0.00 | 64 | 1013.5 |
| 20260508021458 | 81 | 339 | 3.0 | 6.0 | 0.00 | 0.00 | 0.00 | 63 | 1013.3 |
| 20260508020954 | 81 | 327 | 1.0 | 3.0 | 0.00 | 0.00 | 0.00 | 62 | 1013.3 |
| 20260508020452 | 81 | 309 | 1.0 | 2.0 | 0.00 | 0.00 | 0.00 | 61 | 1013.3 |
| 20260508015948 | 82 | 319 | 1.0 | 2.0 | 0.00 | 0.00 | 0.00 | 60 | 1013.4 |
| 20260508015446 | 82 | 308 | 3.0 | 4.0 | 0.00 | 0.00 | 0.00 | 59 | 1013.2 |
| 20260508014943 | 82 | 336 | 1.0 | 6.0 | 0.00 | 0.00 | 0.00 | 58 | 1013.2 |
| 20260508014440 | 82 | 292 | 1.0 | 3.0 | 0.00 | 0.00 | 0.00 | 57 | 1013.3 |
| 20260508013935 | 82 | 301 | 4.0 | 6.0 | 0.00 | 0.00 | 0.00 | 56 | 1013.1 |
| 20260508013432 | 82 | 318 | 1.0 | 8.0 | 0.00 | 0.00 | 0.00 | 55 | 1013.3 |
| 20260508012929 | 83 | 317 | 1.0 | 4.0 | 0.00 | 0.00 | 0.00 | 53 | 1013.3 |
| 20260508012426 | 83 | 325 | 2.0 | 2.0 | 0.00 | 0.00 | 0.00 | 52 | 1013.1 |
| 20260508011923 | 83 | 325 | 2.0 | 4.0 | 0.00 | 0.00 | 0.00 | 51 | 1012.9 |
| 20260508011421 | 83 | 308 | 4.0 | 7.0 | 0.00 | 0.00 | 0.00 | 50 | 1012.8 |
| 20260508010918 | 83 | 322 | 1.0 | 4.0 | 0.00 | 0.00 | 0.00 | 49 | 1012.9 |
| 20260508010415 | 84 | 304 | 4.0 | 8.0 | 0.00 | 0.00 | 0.00 | 47 | 1012.9 |
| 20260508005912 | 84 | 325 | 0.0 | 2.0 | 0.00 | 0.00 | 0.00 | 46 | 1013.0 |
| 20260508005409 | 84 | 335 | 2.0 | 3.0 | 0.00 | 0.00 | 0.00 | 45 | 1012.7 |
| 20260508004906 | 84 | 336 | 2.0 | 4.0 | 0.00 | 0.00 | 0.00 | 44 | 1012.8 |
| 20260508004402 | 84 | 276 | 3.0 | 6.0 | 0.00 | 0.00 | 0.00 | 42 | 1012.8 |
| 20260508003859 | 85 | 5 | 1.0 | 4.0 | 0.00 | 0.00 | 0.00 | 41 | 1012.7 |
| 20260508003355 | 85 | 333 | 1.0 | 3.0 | 0.00 | 0.00 | 0.00 | 40 | 1012.9 |
| 20260508002853 | 85 | 308 | 2.0 | 2.0 | 0.00 | 0.00 | 0.00 | 39 | 1012.9 |
| 20260508002349 | 86 | 339 | 1.0 | 3.0 | 0.00 | 0.00 | 0.00 | 38 | 1012.7 |
| 20260508001845 | 86 | 335 | 2.0 | 4.0 | 0.00 | 0.00 | 0.00 | 37 | 1012.8 |
| 20260508001341 | 86 | 328 | 2.0 | 6.0 | 0.00 | 0.00 | 0.00 | 36 | 1012.6 |
| 20260508000838 | 86 | 313 | 2.0 | 6.0 | 0.00 | 0.00 | 0.00 | 35 | 1012.6 |
| 20260508000335 | 87 | 293 | 3.0 | 4.0 | 0.00 | 0.00 | 0.00 | 35 | 1012.6 |
| 20260507235831 | 87 | 308 | 5.0 | 7.0 | 0.00 | 0.00 | 0.00 | 35 | 1012.5 |
| 20260507235329 | 87 | 312 | 2.0 | 6.0 | 0.00 | 0.00 | 0.00 | 36 | 1012.6 |
| 20260507234826 | 88 | 310 | 3.0 | 4.0 | 0.00 | 0.00 | 0.00 | 35 | 1012.5 |
| 20260507234322 | 88 | 304 | 1.0 | 2.0 | 0.00 | 0.00 | 0.00 | 35 | 1012.4 |
| 20260507233818 | 89 | 345 | 0.0 | 2.0 | 0.00 | 0.00 | 0.00 | 34 | 1012.5 |
| 20260507233316 | 89 | 334 | 2.0 | 4.0 | 0.00 | 0.00 | 0.00 | 34 | 1012.5 |
| 20260507232814 | 89 | 326 | 1.0 | 4.0 | 0.00 | 0.00 | 0.00 | 32 | 1012.4 |
| 20260507232310 | 90 | 333 | 2.0 | 4.0 | 0.00 | 0.00 | 0.00 | 31 | 1012.3 |
| 20260507231808 | 90 | 302 | 1.0 | 4.0 | 0.00 | 0.00 | 0.00 | 30 | 1012.4 |
| 20260507231304 | 91 | 326 | 4.0 | 6.0 | 0.00 | 0.00 | 0.00 | 29 | 1012.3 |
| 20260507230800 | 92 | 279 | 4.0 | 9.0 | 0.00 | 0.00 | 0.00 | 28 | 1012.3 |
| 20260507230258 | 92 | 342 | 2.0 | 7.0 | 0.00 | 0.00 | 0.00 | 27 | 1012.3 |
| 20260507225758 | 92 | 297 | 3.0 | 8.0 | 0.00 | 0.00 | 0.00 | 28 | 1012.3 |
| 20260507225254 | 93 | 319 | 3.0 | 9.0 | 0.00 | 0.00 | 0.00 | 28 | 1012.4 |
| 20260507224750 | 92 | 329 | 3.0 | 4.0 | 0.00 | 0.00 | 0.00 | 30 | 1012.3 |
| 20260507224247 | 92 | 275 | 5.0 | 6.0 | 0.00 | 0.00 | 0.00 | 32 | 1012.1 |
| 20260507223743 | 93 | 338 | 4.0 | 6.0 | 0.00 | 0.00 | 0.00 | 33 | 1012.2 |
| 20260507223240 | 93 | 10 | 3.0 | 6.0 | 0.00 | 0.00 | 0.00 | 32 | 1012.1 |
| 20260507222737 | 93 | 291 | 2.0 | 3.0 | 0.00 | 0.00 | 0.00 | 33 | 1012.0 |
| 20260507222233 | 93 | 288 | 5.0 | 9.0 | 0.00 | 0.00 | 0.00 | 32 | 1012.2 |
| 20260507221730 | 93 | 302 | 4.0 | 7.0 | 0.00 | 0.00 | 0.00 | 33 | 1012.2 |
| 20260507221226 | 93 | 297 | 5.0 | 10.0 | 0.00 | 0.00 | 0.00 | 35 | 1012.2 |
| 20260507220723 | 93 | 302 | 4.0 | 4.0 | 0.00 | 0.00 | 0.00 | 36 | 1011.8 |
| 20260507220221 | 94 | 254 | 4.0 | 6.0 | 0.00 | 0.00 | 0.00 | 37 | 1011.8 |
| 20260507215717 | 94 | 336 | 2.0 | 6.0 | 0.00 | 0.00 | 0.00 | 37 | 1012.0 |
| 20260507215215 | 94 | 295 | 1.0 | 7.0 | 0.00 | 0.00 | 0.00 | 36 | 1011.9 |
| 20260507214712 | 94 | 289 | 7.0 | 10.0 | 0.00 | 0.00 | 0.00 | 37 | 1012.0 |
| 20260507214209 | 95 | 295 | 4.0 | 8.0 | 0.00 | 0.00 | 0.00 | 36 | 1012.0 |
| 20260507213704 | 96 | 250 | 6.0 | 13.0 | 0.00 | 0.00 | 0.00 | 34 | 1011.9 |
| 20260507213202 | 95 | 38 | 2.0 | 4.0 | 0.00 | 0.00 | 0.00 | 31 | 1011.8 |
| 20260507212657 | 95 | 287 | 3.0 | 8.0 | 0.00 | 0.00 | 0.00 | 30 | 1012.1 |
| 20260507212154 | 95 | 309 | 1.0 | 3.0 | 0.00 | 0.00 | 0.00 | 31 | 1012.1 |
| 20260507211651 | 95 | 307 | 1.0 | 4.0 | 0.00 | 0.00 | 0.00 | 31 | 1012.1 |
| 20260507211147 | 95 | 279 | 5.0 | 10.0 | 0.00 | 0.00 | 0.00 | 31 | 1012.1 |
| 20260507210644 | 95 | 327 | 2.0 | 2.0 | 0.00 | 0.00 | 0.00 | 31 | 1012.0 |
| 20260507210141 | 95 | 220 | 4.0 | 8.0 | 0.00 | 0.00 | 0.00 | 31 | 1012.3 |
| 20260507205637 | 95 | 286 | 3.0 | 7.0 | 0.00 | 0.00 | 0.00 | 30 | 1012.2 |
| 20260507205134 | 95 | 336 | 4.0 | 7.0 | 0.00 | 0.00 | 0.00 | 30 | 1012.1 |
| 20260507204630 | 95 | 227 | 5.0 | 9.0 | 0.00 | 0.00 | 0.00 | 30 | 1012.1 |
| 20260507204128 | 95 | 201 | 7.0 | 13.0 | 0.00 | 0.00 | 0.00 | 32 | 1012.1 |
| 20260507203626 | 95 | 290 | 5.0 | 9.0 | 0.00 | 0.00 | 0.00 | 31 | 1012.4 |
| 20260507203123 | 96 | 224 | 2.0 | 6.0 | 0.00 | 0.00 | 0.00 | 31 | 1012.4 |
| 20260507202619 | 95 | 255 | 3.0 | 4.0 | 0.00 | 0.00 | 0.00 | 30 | 1012.5 |
| 20260507202115 | 95 | 238 | 1.0 | 7.0 | 0.00 | 0.00 | 0.00 | 30 | 1012.4 |
| 20260507201610 | 95 | 295 | 1.0 | 7.0 | 0.00 | 0.00 | 0.00 | 30 | 1012.6 |
| 20260507201108 | 95 | 214 | 3.0 | 11.0 | 0.00 | 0.00 | 0.00 | 30 | 1012.8 |
| 20260507200603 | 94 | 185 | 5.0 | 9.0 | 0.00 | 0.00 | 0.00 | 29 | 1012.7 |
| 20260507200059 | 95 | 208 | 5.0 | 9.0 | 0.00 | 0.00 | 0.00 | 29 | 1013.0 |
| 20260507195556 | 95 | 267 | 5.0 | 8.0 | 0.00 | 0.00 | 0.00 | 30 | 1012.7 |
| 20260507195054 | 96 | 214 | 4.0 | 10.0 | 0.00 | 0.00 | 0.00 | 29 | 1013.0 |
| 20260507194550 | 95 | 276 | 4.0 | 8.0 | 0.00 | 0.00 | 0.00 | 29 | 1013.2 |
| 20260507194046 | 95 | 197 | 5.0 | 7.0 | 0.00 | 0.00 | 0.00 | 30 | 1013.0 |
| 20260507193543 | 94 | 292 | 3.0 | 6.0 | 0.00 | 0.00 | 0.00 | 31 | 1013.1 |
| 20260507193040 | 95 | 199 | 7.0 | 11.0 | 0.00 | 0.00 | 0.00 | 31 | 1013.1 |
| 20260507192536 | 95 | 298 | 2.0 | 7.0 | 0.00 | 0.00 | 0.00 | 30 | 1013.5 |
| 20260507192033 | 94 | 335 | 2.0 | 6.0 | 0.00 | 0.00 | 0.00 | 31 | 1013.2 |
| 20260507191528 | 94 | 265 | 4.0 | 8.0 | 0.00 | 0.00 | 0.00 | 32 | 1013.2 |
| 20260507191026 | 94 | 257 | 3.0 | 7.0 | 0.00 | 0.00 | 0.00 | 30 | 1013.1 |
| 20260507190523 | 95 | 229 | 6.0 | 8.0 | 0.00 | 0.00 | 0.00 | 30 | 1013.5 |
| 20260507190022 | 96 | 275 | 3.0 | 8.0 | 0.00 | 0.00 | 0.00 | 28 | 1013.5 |
| 20260507185520 | 95 | 323 | 3.0 | 9.0 | 0.00 | 0.00 | 0.00 | 29 | 1013.8 |
| 20260507185016 | 93 | 333 | 2.0 | 8.0 | 0.00 | 0.00 | 0.00 | 36 | 1013.7 |
| 20260507184514 | 94 | 220 | 6.0 | 7.0 | 0.00 | 0.00 | 0.00 | 35 | 1013.7 |
| 20260507184012 | 93 | 220 | 3.0 | 10.0 | 0.00 | 0.00 | 0.00 | 37 | 1013.9 |
| 20260507183507 | 93 | 244 | 6.0 | 9.0 | 0.00 | 0.00 | 0.00 | 35 | 1013.9 |
| 20260507183005 | 94 | 226 | 5.0 | 7.0 | 0.00 | 0.00 | 0.00 | 34 | 1014.1 |
| 20260507182501 | 94 | 287 | 5.0 | 11.0 | 0.00 | 0.00 | 0.00 | 34 | 1014.3 |
| 20260507181957 | 94 | 275 | 7.0 | 9.0 | 0.00 | 0.00 | 0.00 | 33 | 1014.4 |
| 20260507181454 | 93 | 221 | 4.0 | 6.0 | 0.00 | 0.00 | 0.00 | 36 | 1014.3 |
| 20260507180950 | 92 | 208 | 4.0 | 11.0 | 0.00 | 0.00 | 0.00 | 36 | 1014.6 |
| 20260507180447 | 92 | 260 | 7.0 | 10.0 | 0.00 | 0.00 | 0.00 | 37 | 1014.5 |
| 20260507175943 | 93 | 241 | 8.0 | 10.0 | 0.00 | 0.00 | 0.00 | 37 | 1014.7 |
| 20260507175440 | 92 | 230 | 5.0 | 7.0 | 0.00 | 0.00 | 0.00 | 38 | 1015.0 |
| 20260507174938 | 92 | 249 | 7.0 | 10.0 | 0.00 | 0.00 | 0.00 | 38 | 1014.6 |
| 20260507174434 | 92 | 180 | 5.0 | 14.0 | 0.00 | 0.00 | 0.00 | 39 | 1014.8 |
| 20260507173932 | 92 | 239 | 6.0 | 10.0 | 0.00 | 0.00 | 0.00 | 39 | 1014.8 |
| 20260507173429 | 92 | 270 | 9.0 | 11.0 | 0.00 | 0.00 | 0.00 | 39 | 1014.8 |
| 20260507172926 | 92 | 245 | 7.0 | 11.0 | 0.00 | 0.00 | 0.00 | 40 | 1014.9 |
| 20260507172422 | 91 | 151 | 3.0 | 8.0 | 0.00 | 0.00 | 0.00 | 43 | 1014.8 |
| 20260507171918 | 91 | 249 | 9.0 | 13.0 | 0.00 | 0.00 | 0.00 | 42 | 1014.9 |
| 20260507171415 | 91 | 274 | 4.0 | 9.0 | 0.00 | 0.00 | 0.00 | 41 | 1014.8 |
| 20260507170912 | 91 | 226 | 5.0 | 7.0 | 0.00 | 0.00 | 0.00 | 42 | 1014.8 |
| 20260507170408 | 91 | 265 | 4.0 | 10.0 | 0.00 | 0.00 | 0.00 | 41 | 1014.9 |
| 20260507165905 | 92 | 272 | 3.0 | 8.0 | 0.00 | 0.00 | 0.00 | 43 | 1014.9 |
| 20260507165401 | 91 | 297 | 2.0 | 3.0 | 0.00 | 0.00 | 0.00 | 43 | 1014.7 |
| 20260507164856 | 91 | 239 | 2.0 | 10.0 | 0.00 | 0.00 | 0.00 | 43 | 1014.9 |
| 20260507164354 | 90 | 155 | 4.0 | 9.0 | 0.00 | 0.00 | 0.00 | 45 | 1014.9 |
| 20260507163851 | 90 | 265 | 6.0 | 9.0 | 0.00 | 0.00 | 0.00 | 44 | 1015.0 |
| 20260507163348 | 89 | 227 | 4.0 | 7.0 | 0.00 | 0.00 | 0.00 | 44 | 1015.1 |
| 20260507162845 | 89 | 294 | 4.0 | 8.0 | 0.00 | 0.00 | 0.00 | 45 | 1015.2 |
| 20260507162340 | 89 | 242 | 5.0 | 7.0 | 0.00 | 0.00 | 0.00 | 47 | 1015.0 |
| 20260507161838 | 89 | 214 | 6.0 | 11.0 | 0.00 | 0.00 | 0.00 | 47 | 1015.2 |
| 20260507161334 | 89 | 198 | 6.0 | 8.0 | 0.00 | 0.00 | 0.00 | 47 | 1015.5 |
| 20260507160831 | 89 | 262 | 4.0 | 11.0 | 0.00 | 0.00 | 0.00 | 47 | 1015.1 |
| 20260507160326 | 89 | 292 | 3.0 | 8.0 | 0.00 | 0.00 | 0.00 | 48 | 1015.4 |
| 20260507155823 | 89 | 255 | 8.0 | 11.0 | 0.00 | 0.00 | 0.00 | 47 | 1015.3 |
| 20260507155319 | 89 | 277 | 4.0 | 8.0 | 0.00 | 0.00 | 0.00 | 46 | 1015.5 |
| 20260507154816 | 89 | 291 | 2.0 | 7.0 | 0.00 | 0.00 | 0.00 | 45 | 1015.5 |
| 20260507154313 | 89 | 222 | 2.0 | 6.0 | 0.00 | 0.00 | 0.00 | 44 | 1015.6 |
| 20260507153810 | 88 | 197 | 4.0 | 7.0 | 0.00 | 0.00 | 0.00 | 43 | 1015.7 |
| 20260507153306 | 87 | 164 | 5.0 | 8.0 | 0.00 | 0.00 | 0.00 | 45 | 1015.8 |
| 20260507152803 | 87 | 177 | 6.0 | 13.0 | 0.00 | 0.00 | 0.00 | 46 | 1015.5 |
| 20260507152259 | 87 | 264 | 5.0 | 9.0 | 0.00 | 0.00 | 0.00 | 46 | 1015.8 |
| 20260507151755 | 87 | 210 | 4.0 | 6.0 | 0.00 | 0.00 | 0.00 | 50 | 1015.8 |
| 20260507151251 | 86 | 215 | 5.0 | 10.0 | 0.00 | 0.00 | 0.00 | 51 | 1015.8 |
| 20260507150748 | 86 | 197 | 2.0 | 11.0 | 0.00 | 0.00 | 0.00 | 53 | 1015.9 |
| 20260507150245 | 86 | 187 | 4.0 | 6.0 | 0.00 | 0.00 | 0.00 | 56 | 1015.9 |
| 20260507145741 | 86 | 217 | 4.0 | 11.0 | 0.00 | 0.00 | 0.00 | 55 | 1015.7 |
| 20260507145238 | 86 | 285 | 3.0 | 7.0 | 0.00 | 0.00 | 0.00 | 56 | 1015.7 |
| 20260507144735 | 85 | 351 | 2.0 | 4.0 | 0.00 | 0.00 | 0.00 | 59 | 1015.9 |
| 20260507144233 | 85 | 170 | 4.0 | 7.0 | 0.00 | 0.00 | 0.00 | 60 | 1015.9 |
| 20260507143729 | 85 | 257 | 3.0 | 6.0 | 0.00 | 0.00 | 0.00 | 61 | 1015.8 |
| 20260507143226 | 84 | 275 | 4.0 | 7.0 | 0.00 | 0.00 | 0.00 | 62 | 1016.0 |
| 20260507142722 | 84 | 281 | 2.0 | 3.0 | 0.00 | 0.00 | 0.00 | 62 | 1015.8 |
| 20260507142219 | 84 | 192 | 2.0 | 3.0 | 0.00 | 0.00 | 0.00 | 62 | 1016.1 |
| 20260507141715 | 83 | 260 | 4.0 | 6.0 | 0.00 | 0.00 | 0.00 | 66 | 1016.1 |
| 20260507141213 | 82 | 166 | 4.0 | 4.0 | 0.00 | 0.00 | 0.00 | 67 | 1016.2 |
| 20260507140708 | 82 | 230 | 4.0 | 6.0 | 0.00 | 0.00 | 0.00 | 68 | 1016.2 |
| 20260507140206 | 82 | 232 | 5.0 | 6.0 | 0.00 | 0.00 | 0.00 | 68 | 1016.1 |
| 20260507135703 | 82 | 271 | 3.0 | 7.0 | 0.00 | 0.00 | 0.00 | 68 | 1016.1 |
| 20260507135200 | 82 | 313 | 5.0 | 7.0 | 0.00 | 0.00 | 0.00 | 68 | 1016.1 |
| 20260507134657 | 81 | 164 | 3.0 | 7.0 | 0.00 | 0.00 | 0.00 | 69 | 1016.1 |
| 20260507134153 | 81 | 194 | 4.0 | 7.0 | 0.00 | 0.00 | 0.00 | 70 | 1015.7 |
| 20260507133649 | 81 | 222 | 3.0 | 7.0 | 0.00 | 0.00 | 0.00 | 69 | 1016.2 |
| 20260507133146 | 81 | 212 | 5.0 | 8.0 | 0.00 | 0.00 | 0.00 | 70 | 1016.1 |
| 20260507132643 | 81 | 231 | 3.0 | 7.0 | 0.00 | 0.00 | 0.00 | 71 | 1015.8 |
| 20260507132139 | 80 | 160 | 2.0 | 6.0 | 0.00 | 0.00 | 0.00 | 71 | 1016.0 |
| 20260507131636 | 80 | 181 | 2.0 | 6.0 | 0.00 | 0.00 | 0.00 | 72 | 1016.1 |
| 20260507131134 | 80 | 143 | 5.0 | 6.0 | 0.00 | 0.00 | 0.00 | 72 | 1016.0 |
| 20260507130630 | 79 | 119 | 3.0 | 4.0 | 0.00 | 0.00 | 0.00 | 72 | 1015.8 |
| 20260507130129 | 79 | 201 | 4.0 | 7.0 | 0.00 | 0.00 | 0.00 | 73 | 1016.1 |
| 20260507125627 | 79 | 180 | 2.0 | 7.0 | 0.00 | 0.00 | 0.00 | 74 | 1015.7 |
| 20260507125124 | 78 | 225 | 6.0 | 7.0 | 0.00 | 0.00 | 0.00 | 73 | 1015.7 |
| 20260507124620 | 79 | 288 | 3.0 | 8.0 | 0.00 | 0.00 | 0.00 | 73 | 1016.1 |
| 20260507124118 | 78 | 341 | 3.0 | 4.0 | 0.00 | 0.00 | 0.00 | 74 | 1015.9 |
| 20260507123616 | 78 | 354 | 2.0 | 3.0 | 0.00 | 0.00 | 0.00 | 75 | 1015.9 |
| 20260507123113 | 77 | 78 | 2.0 | 4.0 | 0.00 | 0.00 | 0.00 | 76 | 1015.7 |
| 20260507122608 | 77 | 62 | 2.0 | 3.0 | 0.00 | 0.00 | 0.00 | 77 | 1015.9 |
| 20260507122104 | 76 | 107 | 2.0 | 3.0 | 0.00 | 0.00 | 0.00 | 77 | 1016.1 |
| 20260507121600 | 76 | 6 | 2.0 | 4.0 | 0.00 | 0.00 | 0.00 | 78 | 1015.9 |
| 20260507121056 | 75 | 93 | 3.0 | 3.0 | 0.00 | 0.00 | 0.00 | 79 | 1015.9 |
| 20260507120552 | 75 | 157 | 2.0 | 2.0 | 0.00 | 0.00 | 0.00 | 80 | 1016.0 |
| 20260507120049 | 74 | 330 | 1.0 | 2.0 | 0.00 | 0.00 | 0.00 | 81 | 1015.9 |
| 20260507115545 | 74 | 348 | 0.0 | 2.0 | 0.00 | 0.00 | 0.00 | 81 | 1016.0 |
| 20260507115041 | 74 | 87 | 1.0 | 3.0 | 0.00 | 0.00 | 0.00 | 81 | 1016.1 |
| 20260507114537 | 74 | 250 | 3.0 | 6.0 | 0.00 | 0.00 | 0.00 | 81 | 1016.1 |
| 20260507114035 | 73 | 170 | 2.0 | 4.0 | 0.00 | 0.00 | 0.00 | 81 | 1015.8 |
| 20260507113532 | 73 | 342 | 1.0 | 2.0 | 0.00 | 0.00 | 0.00 | 81 | 1016.1 |
| 20260507113029 | 73 | 329 | 1.0 | 2.0 | 0.00 | 0.00 | 0.00 | 81 | 1015.9 |
| 20260507112527 | 73 | 225 | 3.0 | 3.0 | 0.00 | 0.00 | 0.00 | 81 | 1015.8 |
| 20260507112023 | 73 | 162 | 2.0 | 4.0 | 0.00 | 0.00 | 0.00 | 81 | 1015.8 |
| 20260507111520 | 73 | 315 | 1.0 | 3.0 | 0.00 | 0.00 | 0.00 | 82 | 1015.6 |
| 20260507111017 | 73 | 319 | 1.0 | 2.0 | 0.00 | 0.00 | 0.00 | 82 | 1015.5 |
| 20260507110513 | 72 | 331 | 1.0 | 2.0 | 0.00 | 0.00 | 0.00 | 82 | 1015.4 |
| 20260507110010 | 72 | 318 | 1.0 | 3.0 | 0.00 | 0.00 | 0.00 | 82 | 1015.3 |
| 20260507105507 | 72 | 322 | 2.0 | 2.0 | 0.00 | 0.00 | 0.00 | 82 | 1015.5 |
| 20260507105003 | 72 | 297 | 2.0 | 2.0 | 0.00 | 0.00 | 0.00 | 82 | 1015.4 |
| 20260507104501 | 72 | 281 | 2.0 | 3.0 | 0.00 | 0.00 | 0.00 | 82 | 1015.4 |
| 20260507103956 | 73 | 312 | 2.0 | 2.0 | 0.00 | 0.00 | 0.00 | 81 | 1015.4 |
| 20260507103453 | 73 | 347 | 1.0 | 2.0 | 0.00 | 0.00 | 0.00 | 81 | 1015.1 |
| 20260507102949 | 72 | 229 | 1.0 | 4.0 | 0.00 | 0.00 | 0.00 | 82 | 1015.2 |
| 20260507102446 | 72 | 338 | 1.0 | 2.0 | 0.00 | 0.00 | 0.00 | 82 | 1015.2 |
| 20260507101942 | 72 | 139 | 3.0 | 3.0 | 0.00 | 0.00 | 0.00 | 82 | 1015.1 |
| 20260507101437 | 72 | 221 | 3.0 | 4.0 | 0.00 | 0.00 | 0.00 | 82 | 1015.1 |
| 20260507100934 | 72 | 298 | 1.0 | 3.0 | 0.00 | 0.00 | 0.00 | 82 | 1014.9 |
| 20260507100432 | 72 | 333 | 2.0 | 2.0 | 0.00 | 0.00 | 0.00 | 82 | 1015.1 |
| 20260507095930 | 72 | 325 | 1.0 | 1.0 | 0.00 | 0.00 | 0.00 | 82 | 1015.0 |
| 20260507095427 | 72 | 331 | 0.0 | 1.0 | 0.00 | 0.00 | 0.00 | 83 | 1015.2 |
| 20260507094924 | 71 | 331 | 1.0 | 2.0 | 0.00 | 0.00 | 0.00 | 84 | 1015.0 |
| 20260507094420 | 71 | 345 | 0.0 | 0.0 | 0.00 | 0.00 | 0.00 | 85 | 1014.8 |
| 20260507093917 | 70 | 339 | 0.0 | 2.0 | 0.00 | 0.00 | 0.00 | 86 | 1014.8 |
| 20260507093415 | 70 | 346 | 0.0 | 1.0 | 0.00 | 0.00 | 0.00 | 87 | 1014.7 |
| 20260507092913 | 69 | 350 | 0.0 | 0.0 | 0.00 | 0.00 | 0.00 | 86 | 1014.7 |
| 20260507092409 | 69 | 349 | 0.0 | 0.0 | 0.00 | 0.00 | 0.00 | 87 | 1014.8 |
| 20260507091906 | 69 | 350 | 0.0 | 0.0 | 0.00 | 0.00 | 0.00 | 86 | 1014.8 |
| 20260507091402 | 69 | 351 | 0.0 | 0.0 | 0.00 | 0.00 | 0.00 | 86 | 1014.4 |
| 20260507090858 | 69 | 350 | 0.0 | 0.0 | 0.00 | 0.00 | 0.00 | 85 | 1014.5 |
| 20260507090354 | 69 | 352 | 0.0 | 0.0 | 0.00 | 0.00 | 0.00 | 85 | 1014.6 |
| 20260507085852 | 69 | 352 | 0.0 | 0.0 | 0.00 | 0.00 | 0.00 | 83 | 1014.4 |
| 20260507085348 | 70 | 352 | 0.0 | 0.0 | 0.00 | 0.00 | 0.00 | 83 | 1014.5 |
| 20260507084846 | 70 | 348 | 0.0 | 0.0 | 0.00 | 0.00 | 0.00 | 82 | 1014.5 |
| 20260507084342 | 70 | 355 | 0.0 | 0.0 | 0.00 | 0.00 | 0.00 | 82 | 1014.7 |
| 20260507083839 | 71 | 355 | 0.0 | 0.0 | 0.00 | 0.00 | 0.00 | 82 | 1014.6 |
| 20260507083336 | 71 | 350 | 0.0 | 0.0 | 0.00 | 0.00 | 0.00 | 82 | 1014.8 |
| 20260507082832 | 71 | 351 | 0.0 | 0.0 | 0.00 | 0.00 | 0.00 | 80 | 1014.5 |
| 20260507082328 | 71 | 352 | 0.0 | 0.0 | 0.00 | 0.00 | 0.00 | 79 | 1014.4 |
| 20260507081825 | 71 | 5 | 0.0 | 0.0 | 0.00 | 0.00 | 0.00 | 79 | 1014.6 |
| 20260507081321 | 71 | 3 | 0.0 | 1.0 | 0.00 | 0.00 | 0.00 | 79 | 1014.4 |
| 20260507080818 | 71 | 2 | 0.0 | 1.0 | 0.00 | 0.00 | 0.00 | 79 | 1014.1 |
| 20260507080314 | 71 | 29 | 1.0 | 1.0 | 0.00 | 0.00 | 0.00 | 80 | 1014.5 |
| 20260507075809 | 71 | 359 | 0.0 | 0.0 | 0.00 | 0.00 | 0.00 | 80 | 1014.6 |
| 20260507075307 | 70 | 358 | 0.0 | 0.0 | 0.00 | 0.00 | 0.00 | 80 | 1014.5 |
| 20260507074802 | 70 | 11 | 0.0 | 0.0 | 0.00 | 0.00 | 0.00 | 81 | 1014.3 |
| 20260507074300 | 70 | 353 | 0.0 | 0.0 | 0.00 | 0.00 | 0.00 | 81 | 1014.6 |
| 20260507073757 | 70 | 351 | 0.0 | 0.0 | 0.00 | 0.00 | 0.00 | 79 | 1014.5 |
| 20260507073254 | 70 | 351 | 0.0 | 0.0 | 0.00 | 0.00 | 0.00 | 78 | 1014.5 |
| 20260507072751 | 71 | 352 | 0.0 | 0.0 | 0.00 | 0.00 | 0.00 | 78 | 1014.8 |
| 20260507072248 | 71 | 350 | 0.0 | 0.0 | 0.00 | 0.00 | 0.00 | 78 | 1014.7 |
| 20260507071746 | 71 | 356 | 0.0 | 0.0 | 0.00 | 0.00 | 0.00 | 78 | 1014.7 |
| 20260507071242 | 71 | 357 | 0.0 | 0.0 | 0.00 | 0.00 | 0.00 | 78 | 1014.7 |
| 20260507070739 | 71 | 357 | 0.0 | 0.0 | 0.00 | 0.00 | 0.00 | 77 | 1014.8 |
| 20260507070236 | 71 | 357 | 0.0 | 0.0 | 0.00 | 0.00 | 0.00 | 77 | 1015.0 |
| 20260507065732 | 71 | 359 | 0.0 | 0.0 | 0.00 | 0.00 | 0.00 | 76 | 1014.9 |